createdAt,value
2022-11-24T00:02:28.869Z,81.51
2022-11-24T00:05:01.542Z,81.42
2022-11-24T00:07:34.356Z,81.11
2022-11-24T00:10:07.397Z,81.27
2022-11-24T00:12:39.879Z,81.68
2022-11-24T00:15:13.859Z,81.12
2022-11-24T00:17:46.383Z,81.11
2022-11-24T00:20:18.990Z,81.14
2022-11-24T00:22:51.368Z,81.16
2022-11-24T00:25:23.813Z,81.37
2022-11-24T00:27:56.299Z,81.66
2022-11-24T00:30:30.149Z,80.98
2022-11-24T00:33:02.809Z,80.95
2022-11-24T00:35:35.349Z,80.48
2022-11-24T00:38:07.889Z,81.04
2022-11-24T00:40:40.268Z,80.96
2022-11-24T00:43:12.777Z,81.61
2022-11-24T00:45:46.806Z,80.92
2022-11-24T00:48:19.496Z,81.40
2022-11-24T00:50:59.349Z,80.87
2022-11-24T00:53:32.253Z,81.16
2022-11-24T00:56:05.696Z,81.18
2022-11-24T00:58:38.752Z,81.41
2022-11-24T01:01:14.180Z,81.11
2022-11-24T01:03:49.584Z,81.01
2022-11-24T01:06:24.227Z,80.85
2022-11-24T01:08:57.789Z,80.93
2022-11-24T01:11:50.790Z,81.65
2022-11-24T01:14:24.597Z,81.26
2022-11-24T01:16:58.620Z,80.72
2022-11-24T01:19:31.034Z,80.96
2022-11-24T01:22:03.491Z,81.24
2022-11-24T01:24:36.123Z,80.90
2022-11-24T01:27:09.029Z,81.49
2022-11-24T01:29:41.531Z,80.93
2022-11-24T01:32:15.274Z,81.59
2022-11-24T01:34:47.676Z,80.96
2022-11-24T01:37:20.163Z,80.88
2022-11-24T01:39:52.685Z,80.95
2022-11-24T01:42:25.172Z,81.38
2022-11-24T01:45:31.013Z,81.31
2022-11-24T01:48:10.151Z,81.05
2022-11-24T01:50:43.778Z,81.17
2022-11-24T01:53:16.209Z,81.05
2022-11-24T01:55:49.105Z,81.37
2022-11-24T01:58:27.352Z,81.43
2022-11-24T02:01:00.226Z,81.29
2022-11-24T02:03:38.405Z,81.34
2022-11-24T02:06:13.739Z,81.05
2022-11-24T02:08:52.147Z,81.36
2022-11-24T02:11:28.408Z,81.17
2022-11-24T02:14:01.606Z,81.04
2022-11-24T02:16:35.800Z,81.34
2022-11-24T02:19:18.455Z,81.23
2022-11-24T02:21:51.112Z,81.21
2022-11-24T02:24:31.576Z,81.64
2022-11-24T02:27:05.554Z,81.25
2022-11-24T02:29:38.414Z,81.09
2022-11-24T02:32:11.924Z,81.07
2022-11-24T02:34:44.294Z,81.45
2022-11-24T02:37:16.800Z,80.89
2022-11-24T02:39:49.387Z,81.02
2022-11-24T02:42:24.260Z,81.38
2022-11-24T02:45:00.510Z,81.42
2022-11-24T02:47:32.893Z,81.07
2022-11-24T02:50:06.211Z,81.31
2022-11-24T02:52:38.830Z,80.90
2022-11-24T02:55:11.479Z,81.42
2022-11-24T02:57:46.510Z,81.35
2022-11-24T03:00:19.522Z,80.87
2022-11-24T03:02:52.445Z,80.90
2022-11-24T03:05:24.866Z,81.30
2022-11-24T03:07:57.432Z,81.03
2022-11-24T03:10:29.969Z,81.06
2022-11-24T03:13:03.785Z,81.27
2022-11-24T03:15:36.572Z,81.06
2022-11-24T03:18:09.042Z,81.54
2022-11-24T03:20:41.477Z,81.81
2022-11-24T03:23:14.208Z,81.70
2022-11-24T03:25:46.778Z,81.59
2022-11-24T03:28:20.556Z,81.23
2022-11-24T03:30:53.043Z,81.39
2022-11-24T03:33:25.598Z,81.26
2022-11-24T03:35:58.040Z,81.72
2022-11-24T03:38:30.472Z,81.36
2022-11-24T03:41:03.017Z,81.46
2022-11-24T03:43:43.181Z,81.48
2022-11-24T03:46:16.362Z,81.46
2022-11-24T03:48:48.823Z,81.71
2022-11-24T03:51:21.650Z,81.09
2022-11-24T03:53:54.220Z,81.32
2022-11-24T03:56:26.640Z,81.41
2022-11-24T03:59:00.639Z,81.53
2022-11-24T04:04:05.982Z,81.53
2022-11-24T04:06:38.588Z,81.13
2022-11-24T04:09:11.193Z,81.37
2022-11-24T04:12:02.012Z,81.17
2022-11-24T04:14:36.232Z,81.27
2022-11-24T04:17:09.300Z,81.29
2022-11-24T04:19:41.794Z,81.34
2022-11-24T04:22:14.249Z,81.08
2022-11-24T04:24:46.752Z,81.00
2022-11-24T04:27:19.224Z,80.87
2022-11-24T04:29:53.033Z,81.26
2022-11-24T04:32:25.739Z,81.00
2022-11-24T04:34:58.433Z,81.43
2022-11-24T04:37:30.965Z,81.33
2022-11-24T04:40:04.523Z,81.36
2022-11-24T04:42:37.202Z,81.50
2022-11-24T04:45:11.460Z,81.51
2022-11-24T04:47:43.935Z,81.22
2022-11-24T04:50:17.367Z,81.19
2022-11-24T04:52:49.999Z,81.32
2022-11-24T04:55:22.627Z,81.53
2022-11-24T04:57:55.261Z,81.14
2022-11-24T05:00:29.251Z,81.69
2022-11-24T05:03:01.900Z,81.13
2022-11-24T05:05:34.413Z,81.20
2022-11-24T05:08:06.878Z,81.03
2022-11-24T05:10:40.249Z,80.93
2022-11-24T05:13:13.914Z,81.12
2022-11-24T05:15:48.488Z,81.28
2022-11-24T05:18:20.944Z,80.95
2022-11-24T05:20:53.420Z,81.52
2022-11-24T05:23:26.664Z,81.28
2022-11-24T05:26:01.099Z,81.00
2022-11-24T05:28:33.821Z,80.99
2022-11-24T05:31:07.914Z,81.35
2022-11-24T05:33:40.993Z,81.41
2022-11-24T05:36:33.565Z,81.08
2022-11-24T05:39:05.984Z,81.31
2022-11-24T05:41:38.543Z,81.08
2022-11-24T05:44:11.137Z,81.22
2022-11-24T05:46:45.169Z,80.99
2022-11-24T05:49:17.717Z,81.14
2022-11-24T05:51:50.119Z,80.75
2022-11-24T05:54:22.651Z,80.87
2022-11-24T05:56:56.267Z,81.11
2022-11-24T05:59:28.764Z,81.36
2022-11-24T06:02:03.165Z,80.98
2022-11-24T06:04:35.972Z,81.24
2022-11-24T06:07:11.532Z,80.98
2022-11-24T06:09:44.170Z,81.47
2022-11-24T06:12:16.594Z,81.19
2022-11-24T06:14:49.122Z,81.17
2022-11-24T06:17:23.089Z,80.89
2022-11-24T06:19:55.590Z,81.44
2022-11-24T06:22:28.099Z,80.96
2022-11-24T06:25:00.632Z,81.04
2022-11-24T06:27:33.266Z,80.94
2022-11-24T06:30:06.789Z,81.01
2022-11-24T06:32:49.097Z,81.03
2022-11-24T06:35:22.150Z,81.36
2022-11-24T06:37:55.026Z,81.30
2022-11-24T06:40:27.440Z,81.23
2022-11-24T06:42:59.928Z,81.49
2022-11-24T06:45:32.474Z,81.45
2022-11-24T06:48:06.832Z,80.88
2022-11-24T06:50:39.428Z,81.12
2022-11-24T06:53:12.781Z,80.74
2022-11-24T06:55:46.411Z,81.44
2022-11-24T06:58:19.076Z,80.88
2022-11-24T07:00:52.162Z,81.04
2022-11-24T07:03:26.229Z,80.98
2022-11-24T07:08:32.184Z,81.07
2022-11-24T07:11:06.091Z,81.36
2022-11-24T07:13:39.053Z,80.63
2022-11-24T07:16:16.264Z,81.61
2022-11-24T07:18:52.130Z,81.00
2022-11-24T07:21:25.637Z,81.29
2022-11-24T07:23:58.843Z,80.85
2022-11-24T07:26:31.384Z,80.76
2022-11-24T07:29:04.767Z,80.94
2022-11-24T07:31:37.313Z,80.98
2022-11-24T07:34:11.249Z,81.07
2022-11-24T07:36:45.221Z,81.00
2022-11-24T07:39:17.995Z,80.68
2022-11-24T07:41:50.428Z,80.52
2022-11-24T07:44:22.843Z,80.64
2022-11-24T07:46:55.658Z,80.68
2022-11-24T07:49:29.624Z,80.64
2022-11-24T07:52:02.109Z,80.49
2022-11-24T07:54:34.830Z,80.77
2022-11-24T07:57:07.575Z,80.74
2022-11-24T07:59:40.231Z,80.90
2022-11-24T08:02:13.720Z,80.38
2022-11-24T08:04:47.729Z,80.29
2022-11-24T08:07:20.317Z,80.83
2022-11-24T08:09:52.949Z,79.99
2022-11-24T08:12:25.366Z,80.31
2022-11-24T08:14:57.888Z,80.37
2022-11-24T08:17:30.713Z,80.36
2022-11-24T08:20:05.631Z,80.46
2022-11-24T08:22:38.145Z,79.91
2022-11-24T08:25:11.059Z,80.21
2022-11-24T08:27:43.533Z,80.04
2022-11-24T08:30:16.751Z,80.08
2022-11-24T08:32:49.149Z,79.88
2022-11-24T08:35:22.973Z,80.03
2022-11-24T08:37:58.156Z,80.03
2022-11-24T08:40:35.130Z,80.08
2022-11-24T08:43:07.565Z,79.51
2022-11-24T08:45:41.900Z,79.69
2022-11-24T08:48:14.636Z,79.66
2022-11-24T08:50:48.562Z,79.62
2022-11-24T08:53:20.946Z,79.95
2022-11-24T08:55:53.427Z,79.76
2022-11-24T08:58:26.067Z,80.01
2022-11-24T09:01:07.249Z,79.74
2022-11-24T09:03:43.522Z,79.48
2022-11-24T09:06:25.231Z,80.03
2022-11-24T09:08:59.045Z,79.89
2022-11-24T09:11:34.148Z,79.89
2022-11-24T09:14:06.682Z,80.07
2022-11-24T09:16:39.286Z,79.95
2022-11-24T09:19:12.263Z,79.38
2022-11-24T09:21:46.205Z,79.83
2022-11-24T09:24:18.757Z,79.52
2022-11-24T09:26:51.333Z,79.55
2022-11-24T09:29:23.995Z,79.66
2022-11-24T09:31:57.927Z,79.61
2022-11-24T09:34:33.437Z,79.55
2022-11-24T09:37:07.258Z,79.87
2022-11-24T09:39:39.829Z,79.50
2022-11-24T09:42:17.454Z,79.82
2022-11-24T09:45:15.210Z,79.83
2022-11-24T09:47:59.412Z,79.77
2022-11-24T09:50:34.350Z,79.57
2022-11-24T09:53:16.130Z,79.84
2022-11-24T09:55:50.768Z,79.64
2022-11-24T09:58:35.872Z,79.73
2022-11-24T10:01:14.454Z,79.37
2022-11-24T10:03:49.728Z,79.52
2022-11-24T10:06:26.142Z,79.53
2022-11-24T10:09:21.455Z,79.30
2022-11-24T10:12:03.769Z,79.13
2022-11-24T10:15:11.217Z,79.21
2022-11-24T10:17:59.268Z,79.04
2022-11-24T10:20:49.073Z,79.44
2022-11-24T10:23:39.754Z,79.19
2022-11-24T10:26:19.500Z,79.51
2022-11-24T10:28:54.872Z,79.35
2022-11-24T10:31:33.962Z,79.71
2022-11-24T10:34:14.323Z,79.26
2022-11-24T10:36:56.900Z,79.23
2022-11-24T10:39:37.356Z,79.62
2022-11-24T10:42:18.786Z,79.32
2022-11-24T10:45:00.584Z,79.09
2022-11-24T10:47:33.270Z,79.16
2022-11-24T10:50:15.304Z,79.49
2022-11-24T10:52:55.524Z,79.57
2022-11-24T10:56:00.209Z,79.73
2022-11-24T10:58:38.229Z,79.46
2022-11-24T11:01:27.627Z,79.09
2022-11-24T11:04:01.785Z,79.30
2022-11-24T11:06:34.983Z,79.28
2022-11-24T11:09:19.879Z,79.48
2022-11-24T11:11:54.078Z,79.16
2022-11-24T11:14:32.324Z,79.38
2022-11-24T11:17:32.968Z,79.26
2022-11-24T11:20:16.761Z,79.10
2022-11-24T11:22:50.866Z,79.32
2022-11-24T11:25:27.323Z,79.11
2022-11-24T11:28:28.653Z,78.74
2022-11-24T11:31:22.634Z,78.92
2022-11-24T11:34:08.253Z,79.41
2022-11-24T11:36:45.448Z,79.39
2022-11-24T11:39:24.567Z,79.10
2022-11-24T11:42:07.826Z,79.38
2022-11-24T11:44:47.175Z,78.93
2022-11-24T11:47:30.265Z,79.08
2022-11-24T11:50:02.984Z,78.86
2022-11-24T11:53:02.024Z,79.19
2022-11-24T11:55:49.674Z,79.08
2022-11-24T11:58:51.321Z,79.06
2022-11-24T12:01:42.386Z,79.20
2022-11-24T12:04:23.370Z,79.18
2022-11-24T12:07:34.192Z,78.91
2022-11-24T12:10:17.712Z,78.98
2022-11-24T12:13:03.484Z,79.16
2022-11-24T12:15:39.279Z,79.15
2022-11-24T12:18:55.939Z,78.89
2022-11-24T12:21:27.084Z,79.19
2022-11-24T12:24:10.533Z,79.17
2022-11-24T12:26:48.492Z,79.06
2022-11-24T12:29:55.803Z,79.08
2022-11-24T12:32:49.642Z,78.84
2022-11-24T12:35:29.059Z,78.87
2022-11-24T12:38:21.767Z,78.90
2022-11-24T12:44:04.665Z,78.93
2022-11-24T12:46:48.611Z,79.38
2022-11-24T12:49:28.877Z,79.12
2022-11-24T12:52:06.492Z,78.77
2022-11-24T12:54:41.334Z,79.15
2022-11-24T12:57:18.920Z,78.91
2022-11-24T12:59:59.153Z,78.93
2022-11-24T13:02:57.531Z,78.83
2022-11-24T13:05:36.793Z,78.95
2022-11-24T13:08:09.665Z,78.99
2022-11-24T13:11:00.100Z,79.08
2022-11-24T13:13:58.600Z,78.65
2022-11-24T13:16:37.209Z,78.79
2022-11-24T13:19:21.193Z,78.92
2022-11-24T13:22:23.389Z,79.16
2022-11-24T13:25:21.448Z,78.78
2022-11-24T13:27:58.145Z,78.80
2022-11-24T13:31:07.656Z,79.21
2022-11-24T13:33:40.623Z,78.83
2022-11-24T13:36:48.303Z,78.91
2022-11-24T13:39:22.192Z,78.68
2022-11-24T13:42:03.739Z,79.17
2022-11-24T13:44:52.052Z,78.27
2022-11-24T13:47:33.505Z,78.75
2022-11-24T13:50:09.161Z,78.79
2022-11-24T13:52:47.845Z,78.35
2022-11-24T13:55:25.371Z,78.64
2022-11-24T13:58:02.664Z,78.63
2022-11-24T14:00:58.355Z,78.42
2022-11-24T14:03:36.640Z,78.50
2022-11-24T14:06:16.757Z,78.64
2022-11-24T14:08:49.710Z,78.74
2022-11-24T14:11:23.063Z,78.84
2022-11-24T14:13:55.938Z,78.43
2022-11-24T14:16:30.098Z,78.61
2022-11-24T14:19:10.141Z,78.95
2022-11-24T14:21:44.617Z,78.76
2022-11-24T14:24:23.984Z,78.76
2022-11-24T14:26:56.531Z,78.39
2022-11-24T14:29:33.208Z,79.08
2022-11-24T14:32:17.117Z,78.87
2022-11-24T14:34:51.024Z,79.05
2022-11-24T14:37:23.766Z,78.86
2022-11-24T14:39:56.384Z,78.69
2022-11-24T14:42:29.172Z,79.04
2022-11-24T14:45:04.065Z,78.77
2022-11-24T14:47:45.401Z,78.71
2022-11-24T14:50:23.050Z,78.30
2022-11-24T14:52:57.760Z,78.60
2022-11-24T14:55:31.816Z,78.15
2022-11-24T14:58:20.539Z,78.82
2022-11-24T15:01:09.234Z,78.94
2022-11-24T15:03:43.100Z,78.50
2022-11-24T15:06:18.849Z,78.52
2022-11-24T15:08:51.450Z,78.82
2022-11-24T15:11:24.135Z,78.28
2022-11-24T15:13:56.739Z,78.78
2022-11-24T15:16:30.366Z,78.16
2022-11-24T15:19:06.775Z,78.88
2022-11-24T15:21:39.206Z,78.63
2022-11-24T15:24:17.280Z,78.69
2022-11-24T15:26:49.703Z,79.11
2022-11-24T15:29:22.544Z,78.65
2022-11-24T15:31:55.057Z,78.70
2022-11-24T15:34:28.962Z,79.07
2022-11-24T15:37:01.529Z,78.71
2022-11-24T15:39:34.249Z,78.85
2022-11-24T15:42:08.536Z,78.55
2022-11-24T15:44:41.229Z,78.99
2022-11-24T15:47:13.896Z,78.98
2022-11-24T15:49:47.978Z,78.73
2022-11-24T15:52:20.830Z,78.37
2022-11-24T15:54:56.395Z,79.00
2022-11-24T15:57:29.023Z,79.03
2022-11-24T16:00:01.840Z,78.57
2022-11-24T16:02:44.722Z,78.76
2022-11-24T16:05:19.935Z,79.02
2022-11-24T16:07:52.635Z,78.67
2022-11-24T16:10:27.999Z,78.77
2022-11-24T16:13:00.575Z,78.89
2022-11-24T16:15:33.146Z,78.27
2022-11-24T16:18:06.442Z,78.55
2022-11-24T16:20:40.608Z,78.85
2022-11-24T16:23:13.022Z,78.65
2022-11-24T16:25:45.549Z,78.62
2022-11-24T16:28:18.299Z,78.59
2022-11-24T16:30:51.186Z,78.45
2022-11-24T16:33:23.723Z,78.45
2022-11-24T16:35:57.996Z,78.59
2022-11-24T16:38:30.528Z,78.39
2022-11-24T16:41:03.142Z,78.33
2022-11-24T16:43:35.569Z,79.03
2022-11-24T16:46:18.201Z,78.55
2022-11-24T16:48:52.113Z,79.07
2022-11-24T16:51:31.356Z,78.99
2022-11-24T16:54:06.878Z,78.98
2022-11-24T16:56:39.606Z,78.43
2022-11-24T16:59:12.220Z,78.51
2022-11-24T17:01:46.764Z,78.26
2022-11-24T17:04:19.446Z,78.89
2022-11-24T17:06:53.329Z,79.04
2022-11-24T17:09:25.852Z,78.68
2022-11-24T17:11:58.470Z,78.56
2022-11-24T17:14:31.027Z,78.61
2022-11-24T17:17:06.883Z,78.25
2022-11-24T17:19:39.463Z,78.22
2022-11-24T17:22:13.410Z,77.88
2022-11-24T17:24:45.878Z,78.78
2022-11-24T17:27:18.479Z,78.87
2022-11-24T17:29:51.102Z,78.30
2022-11-24T17:32:23.739Z,78.77
2022-11-24T17:34:56.299Z,78.67
2022-11-24T17:37:32.318Z,78.79
2022-11-24T17:40:27.327Z,78.18
2022-11-24T17:43:00.039Z,78.53
2022-11-24T17:45:36.012Z,78.25
2022-11-24T17:48:08.647Z,77.99
2022-11-24T17:50:41.268Z,78.17
2022-11-24T17:53:18.686Z,78.49
2022-11-24T17:55:51.667Z,78.93
2022-11-24T17:58:26.156Z,78.25
2022-11-24T18:00:59.324Z,78.55
2022-11-24T18:03:32.839Z,78.53
2022-11-24T18:19:34.716Z,78.28
2022-11-24T18:22:07.388Z,78.16
2022-11-24T18:24:40.248Z,78.26
2022-11-24T18:27:12.879Z,78.52
2022-11-24T18:29:45.536Z,78.37
2022-11-24T18:32:18.307Z,78.33
2022-11-24T18:34:52.304Z,79.06
2022-11-24T18:37:24.869Z,78.52
2022-11-24T18:39:57.559Z,78.65
2022-11-24T18:42:30.164Z,78.34
2022-11-24T18:45:02.571Z,78.54
2022-11-24T18:47:35.656Z,78.01
2022-11-24T18:50:10.401Z,78.11
2022-11-24T18:52:43.537Z,78.13
2022-11-24T18:55:16.197Z,78.11
2022-11-24T18:57:48.720Z,78.70
2022-11-24T19:00:21.793Z,78.23
2022-11-24T19:02:54.311Z,78.39
2022-11-24T19:05:28.246Z,78.27
2022-11-24T19:08:00.784Z,78.42
2022-11-24T19:10:36.227Z,78.11
2022-11-24T19:13:08.850Z,78.03
2022-11-24T19:15:41.285Z,78.06
2022-11-24T19:18:13.785Z,78.08
2022-11-24T19:20:48.230Z,78.36
2022-11-24T19:23:20.851Z,78.30
2022-11-24T19:25:53.353Z,78.45
2022-11-24T19:28:25.786Z,78.29
2022-11-24T19:31:00.965Z,78.06
2022-11-24T19:33:34.358Z,78.49
2022-11-24T19:36:12.817Z,78.42
2022-11-24T19:38:50.510Z,77.96
2022-11-24T19:41:26.988Z,77.61
2022-11-24T19:44:00.144Z,78.29
2022-11-24T19:46:33.657Z,77.57
2022-11-24T19:49:08.380Z,77.63
2022-11-24T19:51:42.528Z,77.76
2022-11-24T19:54:15.278Z,78.31
2022-11-24T19:56:47.741Z,77.66
2022-11-24T19:59:23.607Z,78.09
2022-11-24T20:01:56.845Z,77.79
2022-11-24T20:04:29.698Z,78.27
2022-11-24T20:07:03.547Z,78.53
2022-11-24T20:09:36.114Z,77.81
2022-11-24T20:12:10.010Z,77.90
2022-11-24T20:14:42.540Z,77.41
2022-11-24T20:17:15.083Z,77.82
2022-11-24T20:19:47.531Z,77.58
2022-11-24T20:22:21.627Z,77.76
2022-11-24T20:24:54.141Z,78.22
2022-11-24T20:27:26.677Z,77.61
2022-11-24T20:29:59.069Z,78.37
2022-11-24T20:32:31.725Z,77.79
2022-11-24T20:35:04.527Z,77.68
2022-11-24T20:37:38.583Z,78.51
2022-11-24T20:40:11.842Z,78.36
2022-11-24T20:42:45.592Z,77.93
2022-11-24T20:45:18.050Z,78.34
2022-11-24T20:47:50.595Z,78.09
2022-11-24T20:50:23.166Z,78.09
2022-11-24T20:52:57.352Z,77.44
2022-11-24T20:55:32.051Z,77.56
2022-11-24T20:58:04.560Z,77.52
2022-11-24T21:00:37.119Z,78.14
2022-11-24T21:03:09.906Z,77.93
2022-11-24T21:05:42.340Z,77.11
2022-11-24T21:08:17.915Z,77.14
2022-11-24T21:10:54.814Z,78.28
2022-11-24T21:13:28.494Z,77.34
2022-11-24T21:16:01.490Z,78.35
2022-11-24T21:18:34.160Z,77.79
2022-11-24T21:21:07.066Z,78.09
2022-11-24T21:23:41.436Z,77.32
2022-11-24T21:26:17.102Z,78.07
2022-11-24T21:28:49.895Z,78.00
2022-11-24T21:31:23.100Z,77.57
2022-11-24T21:33:55.875Z,77.68
2022-11-24T21:36:28.413Z,77.84
2022-11-24T21:39:03.789Z,77.84
2022-11-24T21:41:36.423Z,77.94
2022-11-24T21:44:10.673Z,77.61
2022-11-24T21:46:48.261Z,77.82
2022-11-24T21:49:23.522Z,77.56
2022-11-24T21:51:56.333Z,77.32
2022-11-24T21:54:30.455Z,77.42
2022-11-24T21:57:02.961Z,77.52
2022-11-24T21:59:35.511Z,77.11
2022-11-24T22:02:13.204Z,77.75
2022-11-24T22:04:46.174Z,78.01
2022-11-24T22:07:18.690Z,76.87
2022-11-24T22:09:52.559Z,77.15
2022-11-24T22:12:25.104Z,77.94
2022-11-24T22:14:57.726Z,77.19
2022-11-24T22:17:31.073Z,77.99
2022-11-24T22:20:03.964Z,77.62
2022-11-24T22:22:36.434Z,77.29
2022-11-24T22:25:10.533Z,77.38
2022-11-24T22:27:43.039Z,77.06
2022-11-24T22:30:15.994Z,76.41
2022-11-24T22:32:48.435Z,76.89
2022-11-24T22:35:21.217Z,77.02
2022-11-24T22:37:53.728Z,76.96
2022-11-24T22:40:27.533Z,76.98
2022-11-24T22:43:00.334Z,77.55
2022-11-24T22:45:35.499Z,77.96
2022-11-24T22:48:07.983Z,77.23
2022-11-24T22:50:40.425Z,77.27
2022-11-24T22:53:12.891Z,77.04
2022-11-24T22:55:46.980Z,77.34
2022-11-24T22:58:19.459Z,77.43
2022-11-24T23:00:52.100Z,77.33
2022-11-24T23:03:24.675Z,77.61
2022-11-24T23:05:59.700Z,77.18
2022-11-24T23:08:33.566Z,77.27
2022-11-24T23:11:09.439Z,77.04
2022-11-24T23:13:42.792Z,76.90
2022-11-24T23:16:17.333Z,77.43
2022-11-24T23:18:53.894Z,77.82
2022-11-24T23:21:28.804Z,77.26
2022-11-24T23:24:03.093Z,77.64
2022-11-24T23:26:38.769Z,77.72
2022-11-24T23:29:11.965Z,77.08
2022-11-24T23:31:44.402Z,78.20
2022-11-24T23:34:17.071Z,77.29
2022-11-24T23:36:49.793Z,77.73
2022-11-24T23:39:22.273Z,78.03
2022-11-24T23:41:56.132Z,77.32
2022-11-24T23:44:28.646Z,77.72
2022-11-24T23:47:01.417Z,77.05
2022-11-24T23:49:33.872Z,77.87
2022-11-24T23:52:06.339Z,77.75
2022-11-24T23:54:38.852Z,77.74
2022-11-24T23:57:12.981Z,77.75
2022-11-24T23:59:45.515Z,77.98
